createdAt,value
2022-09-12T00:01:54.087Z,101129.91
2022-09-12T00:04:23.971Z,101130.09
2022-09-12T00:06:53.702Z,101121.63
2022-09-12T00:09:23.477Z,101122.84
2022-09-12T00:11:53.494Z,101126.56
2022-09-12T00:14:23.303Z,101116.03
2022-09-12T00:16:55.680Z,101117.06
2022-09-12T00:19:25.435Z,101119.97
2022-09-12T00:21:55.234Z,101122.84
2022-09-12T00:24:25.503Z,101118.50
2022-09-12T00:26:55.267Z,101117.06
2022-09-12T00:29:25.438Z,101118.28
2022-09-12T00:31:57.893Z,101113.72
2022-09-12T00:34:27.781Z,101118.47
2022-09-12T00:36:57.707Z,101109.78
2022-09-12T00:39:27.551Z,101109.13
2022-09-12T00:42:00.270Z,101106.66
2022-09-12T00:44:57.232Z,101103.34
2022-09-12T00:47:32.027Z,101103.53
2022-09-12T00:50:07.467Z,101109.94
2022-09-12T00:52:39.928Z,101106.41
2022-09-12T00:55:12.794Z,101106.63
2022-09-12T00:57:47.539Z,101104.97
2022-09-12T01:00:19.893Z,101107.03
2022-09-12T01:02:56.437Z,101107.22
2022-09-12T01:05:28.466Z,101105.78
2022-09-12T01:07:59.818Z,101102.66
2022-09-12T01:10:29.696Z,101106.16
2022-09-12T01:13:00.961Z,101110.91
2022-09-12T01:15:30.718Z,101107.81
2022-09-12T01:18:14.151Z,101107.38
2022-09-12T01:21:14.276Z,101107.38
2022-09-12T01:24:20.365Z,101106.53
2022-09-12T01:27:26.815Z,101108.41
2022-09-12T01:30:36.306Z,101105.28
2022-09-12T01:33:25.218Z,101108.53
2022-09-12T01:36:04.679Z,101110.78
2022-09-12T01:38:40.724Z,101107.88
2022-09-12T01:41:19.282Z,101112.81
2022-09-12T01:43:54.805Z,101114.47
2022-09-12T01:46:31.399Z,101096.09
2022-09-12T01:49:10.226Z,101102.28
2022-09-12T01:51:45.222Z,101099.81
2022-09-12T01:54:20.366Z,101091.56
2022-09-12T01:56:54.937Z,101095.25
2022-09-12T01:59:28.844Z,101097.28
2022-09-12T02:02:06.571Z,101102.03
2022-09-12T02:04:44.986Z,101097.88
2022-09-12T02:07:21.424Z,101104.06
2022-09-12T02:09:57.406Z,101105.09
2022-09-12T02:12:32.374Z,101102.63
2022-09-12T02:15:06.451Z,101099.94
2022-09-12T02:17:41.396Z,101102.63
2022-09-12T02:20:44.045Z,101103.63
2022-09-12T02:23:15.074Z,101109.00
2022-09-12T02:25:49.106Z,101104.88
2022-09-12T02:28:24.432Z,101102.56
2022-09-12T02:31:03.239Z,101112.47
2022-09-12T02:33:39.375Z,101105.25
2022-09-12T02:36:24.060Z,101106.28
2022-09-12T02:38:54.561Z,101097.59
2022-09-12T02:41:25.477Z,101097.16
2022-09-12T02:43:56.838Z,101100.22
2022-09-12T02:46:30.993Z,101096.50
2022-09-12T02:49:00.825Z,101102.91
2022-09-12T02:51:33.827Z,101106.81
2022-09-12T02:54:06.632Z,101110.72
2022-09-12T02:56:36.623Z,101110.50
2022-09-12T02:59:09.559Z,101106.38
2022-09-12T03:02:02.892Z,101111.72
2022-09-12T03:04:51.463Z,101107.19
2022-09-12T03:07:37.876Z,101111.72
2022-09-12T03:10:16.528Z,101109.25
2022-09-12T03:12:55.827Z,101107.19
2022-09-12T03:15:37.798Z,101104.91
2022-09-12T03:18:27.910Z,101105.09
2022-09-12T03:21:07.406Z,101097.06
2022-09-12T03:23:45.573Z,101103.44
2022-09-12T03:26:20.146Z,101103.25
2022-09-12T03:28:51.425Z,101098.09
2022-09-12T03:31:23.031Z,101097.66
2022-09-12T03:33:52.767Z,101098.88
2022-09-12T03:36:25.791Z,101098.25
2022-09-12T03:38:58.118Z,101100.47
2022-09-12T03:41:27.956Z,101098.63
2022-09-12T03:43:57.829Z,101098.00
2022-09-12T03:46:27.693Z,101105.22
2022-09-12T03:48:57.660Z,101094.50
2022-09-12T03:51:27.479Z,101099.03
2022-09-12T03:53:59.892Z,101111.78
2022-09-12T03:56:30.400Z,101111.78
2022-09-12T03:59:00.285Z,101114.28
2022-09-12T04:01:30.163Z,101109.94
2022-09-12T04:03:59.937Z,101115.50
2022-09-12T04:06:29.845Z,101117.53
2022-09-12T04:09:02.204Z,101116.91
2022-09-12T04:11:32.327Z,101119.59
2022-09-12T04:14:02.108Z,101118.94
2022-09-12T04:16:32.419Z,101114.59
2022-09-12T04:19:02.268Z,101117.47
2022-09-12T04:21:32.335Z,101114.97
2022-09-12T04:24:05.158Z,101110.00
2022-09-12T04:26:35.089Z,101113.06
2022-09-12T04:29:04.869Z,101109.94
2022-09-12T04:31:34.713Z,101108.47
2022-09-12T04:34:05.550Z,101109.50
2022-09-12T04:36:36.307Z,101104.97
2022-09-12T04:39:08.894Z,101110.53
2022-09-12T04:41:40.925Z,101114.03
2022-09-12T04:44:13.690Z,101114.22
2022-09-12T04:46:47.289Z,101106.38
2022-09-12T04:49:19.510Z,101108.25
2022-09-12T04:51:49.972Z,101117.94
2022-09-12T04:54:23.385Z,101116.72
2022-09-12T04:56:54.920Z,101120.47
2022-09-12T04:59:26.604Z,101119.06
2022-09-12T05:01:56.524Z,101114.97
2022-09-12T05:04:26.307Z,101115.41
2022-09-12T05:06:56.370Z,101114.88
2022-09-12T05:09:29.266Z,101112.63
2022-09-12T05:12:04.120Z,101107.31
2022-09-12T05:14:35.336Z,101113.16
2022-09-12T05:17:06.169Z,101113.81
2022-09-12T05:19:37.810Z,101121.94
2022-09-12T05:22:07.700Z,101119.75
2022-09-12T05:24:47.302Z,101112.75
2022-09-12T05:27:20.163Z,101123.78
2022-09-12T05:29:49.919Z,101117.81
2022-09-12T05:32:19.825Z,101125.53
2022-09-12T05:34:49.837Z,101132.38
2022-09-12T05:37:19.723Z,101129.53
2022-09-12T05:39:52.371Z,101127.28
2022-09-12T05:42:22.245Z,101130.25
2022-09-12T05:44:52.064Z,101140.22
2022-09-12T05:47:21.927Z,101145.00
2022-09-12T05:49:52.567Z,101143.63
2022-09-12T05:52:22.317Z,101144.88
2022-09-12T05:54:54.850Z,101150.69
2022-09-12T05:57:24.631Z,101154.63
2022-09-12T05:59:54.754Z,101147.63
2022-09-12T06:02:24.703Z,101147.22
2022-09-12T06:04:54.654Z,101151.97
2022-09-12T06:07:24.480Z,101149.50
2022-09-12T06:09:56.810Z,101154.50
2022-09-12T06:12:26.877Z,101151.59
2022-09-12T06:14:56.668Z,101151.97
2022-09-12T06:17:28.022Z,101146.38
2022-09-12T06:19:57.913Z,101152.38
2022-09-12T06:22:28.343Z,101159.19
2022-09-12T06:25:00.956Z,101158.94
2022-09-12T06:27:30.768Z,101157.69
2022-09-12T06:30:00.916Z,101164.50
2022-09-12T06:32:34.533Z,101164.28
2022-09-12T06:35:05.624Z,101154.72
2022-09-12T06:37:35.353Z,101164.19
2022-09-12T06:40:10.265Z,101164.19
2022-09-12T06:42:40.067Z,101168.28
2022-09-12T06:45:11.567Z,101168.03
2022-09-12T06:47:41.357Z,101173.16
2022-09-12T06:50:12.087Z,101170.25
2022-09-12T06:52:41.967Z,101185.50
2022-09-12T06:55:19.466Z,101187.13
2022-09-12T06:57:50.175Z,101183.34
2022-09-12T07:00:20.617Z,101181.41
2022-09-12T07:02:50.441Z,101177.88
2022-09-12T07:05:20.229Z,101179.69
2022-09-12T07:07:49.973Z,101172.56
2022-09-12T07:10:22.602Z,101169.22
2022-09-12T07:12:52.361Z,101173.88
2022-09-12T07:15:22.124Z,101170.91
2022-09-12T07:17:52.192Z,101171.22
2022-09-12T07:20:23.382Z,101168.03
2022-09-12T07:22:53.770Z,101165.50
2022-09-12T07:25:26.147Z,101167.91
2022-09-12T07:27:55.948Z,101166.56
2022-09-12T07:30:25.844Z,101177.44
2022-09-12T07:32:56.387Z,101177.28
2022-09-12T07:35:26.184Z,101170.53
2022-09-12T07:37:56.318Z,101178.78
2022-09-12T07:40:28.745Z,101172.97
2022-09-12T07:42:58.486Z,101166.88
2022-09-12T07:45:28.291Z,101170.41
2022-09-12T07:47:58.540Z,101166.78
2022-09-12T07:50:28.409Z,101170.19
2022-09-12T07:52:58.234Z,101166.69
2022-09-12T07:55:30.651Z,101166.81
2022-09-12T07:58:00.816Z,101171.91
2022-09-12T08:00:35.931Z,101172.78
2022-09-12T08:03:07.348Z,101175.97
2022-09-12T08:05:37.264Z,101174.38
2022-09-12T08:08:07.050Z,101174.56
2022-09-12T08:10:39.601Z,101174.53
2022-09-12T08:13:10.815Z,101170.53
2022-09-12T08:15:40.855Z,101171.97
2022-09-12T08:18:10.664Z,101175.56
2022-09-12T08:20:40.464Z,101173.97
2022-09-12T08:23:10.256Z,101166.06
2022-09-12T08:25:42.625Z,101169.75
2022-09-12T08:28:14.828Z,101175.41
2022-09-12T08:30:44.779Z,101173.56
2022-09-12T08:33:15.357Z,101172.94
2022-09-12T08:35:45.155Z,101171.16
2022-09-12T08:38:15.171Z,101183.56
2022-09-12T08:40:56.040Z,101184.72
2022-09-12T08:43:37.164Z,101181.16
2022-09-12T08:46:13.861Z,101181.97
2022-09-12T08:48:47.189Z,101182.03
2022-09-12T08:51:20.674Z,101181.66
2022-09-12T08:53:54.826Z,101180.25
2022-09-12T08:59:48.481Z,101176.44
2022-09-12T09:02:34.995Z,101175.72
2022-09-12T09:05:15.151Z,101180.69
2022-09-12T09:08:05.073Z,101174.00
2022-09-12T09:10:40.300Z,101171.38
2022-09-12T09:13:41.750Z,101172.81
2022-09-12T09:18:52.769Z,101170.13
2022-09-12T09:21:26.074Z,101164.56
2022-09-12T09:24:02.719Z,101167.94
2022-09-12T09:26:42.147Z,101166.00
2022-09-12T09:29:18.404Z,101158.66
2022-09-12T09:31:50.480Z,101167.63
2022-09-12T09:41:15.300Z,101162.94
2022-09-12T09:43:43.963Z,101162.91
2022-09-12T09:46:13.776Z,101159.44
2022-09-12T09:48:45.933Z,101159.06
2022-09-12T09:51:17.773Z,101165.25
2022-09-12T09:53:51.677Z,101160.50
2022-09-12T09:56:31.021Z,101155.31
2022-09-12T10:04:05.017Z,101153.31
2022-09-12T10:06:35.473Z,101153.19
2022-09-12T10:09:20.208Z,101151.34
2022-09-12T10:11:50.064Z,101150.22
2022-09-12T10:14:35.058Z,101147.97
2022-09-12T10:17:07.393Z,101139.84
2022-09-12T10:19:41.936Z,101146.63
2022-09-12T10:22:21.010Z,101146.78
2022-09-12T10:24:52.627Z,101139.25
2022-09-12T10:27:25.357Z,101138.75
2022-09-12T10:29:58.670Z,101139.59
2022-09-12T10:32:34.708Z,101138.81
2022-09-12T10:35:09.690Z,101142.13
2022-09-12T10:37:42.281Z,101134.75
2022-09-12T10:40:26.372Z,101136.66
2022-09-12T10:42:58.038Z,101140.50
2022-09-12T10:45:32.026Z,101139.13
2022-09-12T10:48:07.518Z,101127.91
2022-09-12T10:50:43.646Z,101130.56
2022-09-12T10:53:21.183Z,101128.91
2022-09-12T10:56:11.006Z,101120.69
2022-09-12T10:58:56.933Z,101125.91
2022-09-12T11:01:40.307Z,101123.41
2022-09-12T11:04:25.127Z,101122.00
2022-09-12T11:07:08.281Z,101126.03
2022-09-12T11:09:45.765Z,101120.63
2022-09-12T11:12:22.211Z,101119.00
2022-09-12T11:15:07.084Z,101120.22
2022-09-12T11:17:50.030Z,101118.59
2022-09-12T11:20:35.212Z,101116.22
2022-09-12T11:23:47.314Z,101119.16
2022-09-12T11:26:30.627Z,101119.44
2022-09-12T11:29:15.462Z,101111.56
2022-09-12T11:32:10.288Z,101123.94
2022-09-12T11:34:53.923Z,101120.25
2022-09-12T11:37:44.775Z,101120.00
2022-09-12T11:40:30.583Z,101118.41
2022-09-12T11:43:06.278Z,101111.13
2022-09-12T11:45:43.456Z,101112.84
2022-09-12T11:48:19.061Z,101114.09
2022-09-12T11:50:48.920Z,101106.91
2022-09-12T11:53:25.874Z,101113.53
2022-09-12T11:56:05.496Z,101118.25
2022-09-12T11:58:36.748Z,101112.38
2022-09-12T12:01:17.095Z,101100.91
2022-09-12T12:03:49.249Z,101098.16
2022-09-12T12:06:21.980Z,101097.13
2022-09-12T12:08:53.220Z,101099.53
2022-09-12T12:11:33.759Z,101097.59
2022-09-12T12:14:06.870Z,101083.75
2022-09-12T12:16:41.033Z,101088.47
2022-09-12T12:19:28.661Z,101087.03
2022-09-12T12:22:07.374Z,101084.00
2022-09-12T12:24:37.780Z,101081.59
2022-09-12T12:27:27.326Z,101073.75
2022-09-12T12:29:58.504Z,101070.41
2022-09-12T12:32:28.947Z,101059.81
2022-09-12T12:35:26.313Z,101064.56
2022-09-12T12:37:58.280Z,101059.63
2022-09-12T12:40:30.533Z,101065.25
2022-09-12T12:43:09.029Z,101058.38
2022-09-12T12:46:07.480Z,101053.59
2022-09-12T12:49:10.820Z,101062.91
2022-09-12T12:52:02.166Z,101059.59
2022-09-12T12:54:55.244Z,101052.94
2022-09-12T12:57:51.157Z,101058.03
2022-09-12T13:00:36.242Z,101061.47
2022-09-12T13:03:20.839Z,101057.03
2022-09-12T13:05:54.193Z,101054.22
2022-09-12T13:08:33.245Z,101043.97
2022-09-12T13:11:05.791Z,101047.91
2022-09-12T13:13:41.011Z,101052.34
2022-09-12T13:16:14.823Z,101041.00
2022-09-12T13:18:48.400Z,101043.28
2022-09-12T13:21:20.181Z,101042.03
2022-09-12T13:24:02.620Z,101036.88
2022-09-12T13:26:37.613Z,101044.53
2022-09-12T13:29:19.695Z,101040.41
2022-09-12T13:31:56.452Z,101039.13
2022-09-12T13:34:29.769Z,101025.94
2022-09-12T13:37:41.608Z,101036.50
2022-09-12T13:40:27.137Z,101023.16
2022-09-12T13:43:11.510Z,101029.34
2022-09-12T13:45:42.043Z,101029.59
2022-09-12T13:48:20.879Z,101023.00
2022-09-12T13:50:55.673Z,101024.91
2022-09-12T13:53:28.678Z,101018.41
2022-09-12T13:56:01.351Z,101012.38
2022-09-12T13:58:33.224Z,101009.69
2022-09-12T14:01:04.741Z,101017.81
2022-09-12T14:03:58.555Z,101009.09
2022-09-12T14:06:28.868Z,101000.97
2022-09-12T14:09:01.571Z,101010.75
2022-09-12T14:11:33.950Z,101008.53
2022-09-12T14:14:09.379Z,101005.81
2022-09-12T14:16:43.037Z,101008.53
2022-09-12T14:19:16.394Z,101010.44
2022-09-12T14:21:46.477Z,101003.34
2022-09-12T14:24:16.647Z,101003.03
2022-09-12T14:26:48.486Z,100998.09
2022-09-12T14:29:19.962Z,100996.72
2022-09-12T14:31:50.255Z,100992.34
2022-09-12T14:34:22.895Z,100999.91
2022-09-12T14:36:55.993Z,101001.47
2022-09-12T14:39:31.298Z,100991.13
2022-09-12T14:42:08.218Z,100991.38
2022-09-12T14:44:41.994Z,100991.03
2022-09-12T14:47:17.671Z,100984.47
2022-09-12T14:49:52.768Z,100990.63
2022-09-12T14:52:28.923Z,100983.25
2022-09-12T14:55:00.222Z,100987.03
2022-09-12T14:57:39.394Z,100992.38
2022-09-12T15:00:26.880Z,100978.25
2022-09-12T15:02:57.425Z,100980.72
2022-09-12T15:05:30.867Z,100976.59
2022-09-12T15:08:02.969Z,100977.06
2022-09-12T15:10:34.581Z,100978.38
2022-09-12T15:13:17.142Z,100963.88
2022-09-12T15:15:48.744Z,100973.09
2022-09-12T15:18:21.477Z,100973.00
2022-09-12T15:20:56.735Z,100976.22
2022-09-12T15:23:35.423Z,100967.41
2022-09-12T15:26:05.336Z,100974.50
2022-09-12T15:28:35.704Z,100977.94
2022-09-12T15:31:10.173Z,100962.91
2022-09-12T15:33:40.034Z,100971.75
2022-09-12T15:36:19.216Z,100973.78
2022-09-12T15:38:49.964Z,100966.97
2022-09-12T15:41:21.752Z,100963.34
2022-09-12T15:43:52.497Z,100961.94
2022-09-12T15:46:22.486Z,100961.84
2022-09-12T15:48:52.973Z,100960.22
2022-09-12T15:51:25.628Z,100953.31
2022-09-12T15:53:55.411Z,100955.59
2022-09-12T15:56:25.682Z,100955.84
2022-09-12T15:58:59.210Z,100954.53
2022-09-12T16:01:31.132Z,100958.94
2022-09-12T16:04:01.006Z,100957.25
2022-09-12T16:06:37.134Z,100955.03
2022-09-12T16:09:07.557Z,100951.25
2022-09-12T16:11:37.838Z,100947.72
2022-09-12T16:14:10.356Z,100949.63
2022-09-12T16:16:40.266Z,100945.25
2022-09-12T16:19:10.132Z,100940.91
2022-09-12T16:21:42.606Z,100942.22
2022-09-12T16:24:12.437Z,100939.75
2022-09-12T16:26:42.193Z,100934.25
2022-09-12T16:29:14.811Z,100934.72
2022-09-12T16:31:44.961Z,100930.38
2022-09-12T16:34:14.856Z,100928.72
2022-09-12T16:36:47.520Z,100931.91
2022-09-12T16:39:17.374Z,100925.44
2022-09-12T16:41:47.150Z,100922.16
2022-09-12T16:44:16.855Z,100927.81
2022-09-12T16:46:46.614Z,100921.81
2022-09-12T16:49:16.834Z,100915.00
2022-09-12T16:51:49.170Z,100914.19
2022-09-12T16:54:19.989Z,100911.47
2022-09-12T16:56:50.094Z,100910.06
2022-09-12T16:59:19.876Z,100914.09
2022-09-12T17:01:49.665Z,100913.47
2022-09-12T17:04:22.981Z,100912.66
2022-09-12T17:06:57.498Z,100898.19
2022-09-12T17:09:28.278Z,100900.56
2022-09-12T17:11:58.935Z,100899.41
2022-09-12T17:14:28.727Z,100896.34
2022-09-12T17:16:58.592Z,100892.72
2022-09-12T17:19:30.775Z,100892.63
2022-09-12T17:22:03.297Z,100892.25
2022-09-12T17:24:33.069Z,100894.38
2022-09-12T17:27:02.973Z,100886.94
2022-09-12T17:29:34.440Z,100892.84
2022-09-12T17:32:04.784Z,100893.06
2022-09-12T17:34:34.667Z,100883.56
2022-09-12T17:37:07.142Z,100886.75
2022-09-12T17:39:36.909Z,100891.31
2022-09-12T17:42:08.034Z,100887.22
2022-09-12T17:44:38.254Z,100890.41
2022-09-12T17:47:08.387Z,100889.22
2022-09-12T17:49:39.576Z,100885.94
2022-09-12T17:52:12.001Z,100890.19
2022-09-12T17:54:41.798Z,100890.41
2022-09-12T17:57:11.534Z,100890.06
2022-09-12T17:59:41.587Z,100890.31
2022-09-12T18:02:16.227Z,100895.97
2022-09-12T18:04:48.526Z,100894.31
2022-09-12T18:07:22.520Z,100900.75
2022-09-12T18:09:54.304Z,100897.69
2022-09-12T18:12:24.178Z,100906.03
2022-09-12T18:14:54.161Z,100904.63
2022-09-12T18:17:23.991Z,100904.53
2022-09-12T18:19:54.937Z,100905.22
2022-09-12T18:22:27.399Z,100912.97
2022-09-12T18:24:59.928Z,100906.16
2022-09-12T18:27:29.670Z,100904.13
2022-09-12T18:30:20.208Z,100904.38
2022-09-12T18:32:49.715Z,100900.25
2022-09-12T18:35:19.848Z,100894.94
2022-09-12T18:37:52.246Z,100897.53
2022-09-12T18:40:22.087Z,100901.28
2022-09-12T18:42:52.558Z,100901.50
2022-09-12T18:45:22.306Z,100899.28
2022-09-12T18:47:52.079Z,100898.09
2022-09-12T18:50:23.202Z,100897.75
2022-09-12T18:52:59.746Z,100893.75
2022-09-12T18:55:29.892Z,100892.56
2022-09-12T18:57:59.795Z,100888.88
2022-09-12T19:00:29.748Z,100891.81
2022-09-12T19:03:00.448Z,100889.56
2022-09-12T19:05:31.431Z,100888.28
2022-09-12T19:08:04.452Z,100888.28
2022-09-12T19:10:34.337Z,100878.06
2022-09-12T19:13:04.512Z,100873.97
2022-09-12T19:15:34.285Z,100870.19
2022-09-12T19:18:04.068Z,100866.91
2022-09-12T19:20:34.180Z,100855.53
2022-09-12T19:23:06.670Z,100856.56
2022-09-12T19:25:36.727Z,100859.28
2022-09-12T19:28:06.584Z,100858.69
2022-09-12T19:30:36.704Z,100860.78
2022-09-12T19:33:06.731Z,100860.78
2022-09-12T19:35:37.219Z,100857.75
2022-09-12T19:38:09.592Z,100854.69
2022-09-12T19:40:39.804Z,100854.09
2022-09-12T19:43:10.060Z,100849.34
2022-09-12T19:45:40.037Z,100850.41
2022-09-12T19:48:09.883Z,100850.63
2022-09-12T19:50:39.696Z,100854.38
2022-09-12T19:53:12.307Z,100849.44
2022-09-12T19:55:42.048Z,100848.41
2022-09-12T19:58:11.884Z,100849.44
2022-09-12T20:00:43.690Z,100844.50
2022-09-12T20:03:13.644Z,100846.38
2022-09-12T20:05:43.348Z,100842.47
2022-09-12T20:08:15.715Z,100838.81
2022-09-12T20:10:45.500Z,100836.59
2022-09-12T20:13:16.094Z,100839.97
2022-09-12T20:15:45.922Z,100839.38
2022-09-12T20:18:15.878Z,100829.88
2022-09-12T20:20:45.667Z,100830.09
2022-09-12T20:23:18.007Z,100830.78
2022-09-12T20:25:47.773Z,100824.78
2022-09-12T20:28:17.730Z,100831.69
2022-09-12T20:30:47.525Z,100828.63
2022-09-12T20:33:17.344Z,100831.75
2022-09-12T20:35:47.056Z,100829.28
2022-09-12T20:38:19.396Z,100821.66
2022-09-12T20:40:51.413Z,100824.59
2022-09-12T20:43:21.619Z,100819.41
2022-09-12T20:45:51.475Z,100821.97
2022-09-12T20:48:21.342Z,100819.50
2022-09-12T20:50:51.107Z,100815.38
2022-09-12T20:53:23.456Z,100815.84
2022-09-12T20:55:54.027Z,100814.19
2022-09-12T20:58:25.307Z,100820.84
2022-09-12T21:00:55.176Z,100816.25
2022-09-12T21:03:25.520Z,100816.50
2022-09-12T21:05:55.668Z,100818.38
2022-09-12T21:08:28.117Z,100812.84
2022-09-12T21:10:57.815Z,100808.50
2022-09-12T21:13:30.663Z,100806.03
2022-09-12T21:16:04.212Z,100805.63
2022-09-12T21:18:35.252Z,100806.06
2022-09-12T21:21:05.123Z,100801.97
2022-09-12T21:23:37.528Z,100806.97
2022-09-12T21:26:07.832Z,100807.19
2022-09-12T21:28:37.599Z,100806.59
2022-09-12T21:31:08.701Z,100803.91
2022-09-12T21:33:38.875Z,100804.13
2022-09-12T21:36:09.734Z,100800.03
2022-09-12T21:38:42.115Z,100803.16
2022-09-12T21:41:13.844Z,100799.28
2022-09-12T21:43:43.897Z,100806.16
2022-09-12T21:46:14.391Z,100798.75
2022-09-12T21:48:45.484Z,100790.06
2022-09-12T21:51:15.172Z,100787.38
2022-09-12T21:53:47.540Z,100789.44
2022-09-12T21:56:17.568Z,100788.00
2022-09-12T21:58:47.500Z,100780.16
2022-09-12T22:01:17.284Z,100788.84
2022-09-12T22:03:47.173Z,100777.09
2022-09-12T22:06:21.872Z,100774.03
2022-09-12T22:08:54.760Z,100775.28
2022-09-12T22:11:27.493Z,100769.31
2022-09-12T22:13:57.224Z,100769.53
2022-09-12T22:16:27.002Z,100774.91
2022-09-12T22:18:57.886Z,100767.72
2022-09-12T22:21:27.592Z,100765.25
2022-09-12T22:24:12.364Z,100758.41
2022-09-12T22:26:44.056Z,100752.22
2022-09-12T22:29:13.997Z,100752.44
2022-09-12T22:31:43.775Z,100747.50
2022-09-12T22:34:13.523Z,100746.06
2022-09-12T22:36:43.473Z,100742.97
2022-09-12T22:39:15.772Z,100732.66
2022-09-12T22:41:45.513Z,100726.66
2022-09-12T22:44:16.108Z,100731.88
2022-09-12T22:46:45.877Z,100728.22
2022-09-12T22:49:15.752Z,100717.69
2022-09-12T22:51:45.462Z,100718.72
2022-09-12T22:54:17.797Z,100714.81
2022-09-12T22:56:47.581Z,100711.53
2022-09-12T22:59:17.570Z,100701.00
2022-09-12T23:01:47.311Z,100695.00
2022-09-12T23:04:17.323Z,100691.13
2022-09-12T23:06:47.013Z,100688.22
2022-09-12T23:09:19.539Z,100682.91
2022-09-12T23:11:49.290Z,100681.28
2022-09-12T23:14:19.095Z,100677.97
2022-09-12T23:16:48.836Z,100682.16
2022-09-12T23:19:18.572Z,100677.66
2022-09-12T23:21:48.361Z,100677.50
2022-09-12T23:24:20.950Z,100669.25
2022-09-12T23:26:50.700Z,100666.34
2022-09-12T23:29:20.431Z,100672.56
2022-09-12T23:31:50.197Z,100669.44
2022-09-12T23:34:20.131Z,100677.75
2022-09-12T23:36:49.919Z,100679.78
2022-09-12T23:39:23.182Z,100670.91
2022-09-12T23:41:53.083Z,100674.41
2022-09-12T23:44:22.891Z,100668.22
2022-09-12T23:46:52.603Z,100667.19
2022-09-12T23:49:22.481Z,100667.41
2022-09-12T23:51:52.213Z,100661.19
2022-09-12T23:54:25.115Z,100665.34
2022-09-12T23:56:55.203Z,100655.19
2022-09-12T23:59:25.040Z,100642.97
